sensor_id;sensor_type;location;lat;lon;timestamp;P1;durP1;ratioP1;P2;durP2;ratioP2
974;SDS011;6115;49.296;10.602;2022-11-20T00:04:50;36.10;;;17.60;;
974;SDS011;6115;49.296;10.602;2022-11-20T00:09:50;34.27;;;18.27;;
974;SDS011;6115;49.296;10.602;2022-11-20T00:14:51;34.03;;;18.17;;
974;SDS011;6115;49.296;10.602;2022-11-20T00:19:51;31.90;;;15.70;;
974;SDS011;6115;49.296;10.602;2022-11-20T00:24:52;36.47;;;18.40;;
974;SDS011;6115;49.296;10.602;2022-11-20T00:29:52;36.03;;;18.37;;
974;SDS011;6115;49.296;10.602;2022-11-20T00:34:53;38.90;;;18.20;;
974;SDS011;6115;49.296;10.602;2022-11-20T00:39:53;28.07;;;17.47;;
974;SDS011;6115;49.296;10.602;2022-11-20T00:44:54;37.13;;;18.67;;
974;SDS011;6115;49.296;10.602;2022-11-20T00:49:54;29.63;;;16.13;;
974;SDS011;6115;49.296;10.602;2022-11-20T00:54:55;28.57;;;16.20;;
974;SDS011;6115;49.296;10.602;2022-11-20T00:59:56;31.07;;;15.67;;
974;SDS011;6115;49.296;10.602;2022-11-20T01:04:56;30.77;;;16.50;;
974;SDS011;6115;49.296;10.602;2022-11-20T01:09:57;35.43;;;17.90;;
974;SDS011;6115;49.296;10.602;2022-11-20T01:14:57;29.73;;;16.40;;
974;SDS011;6115;49.296;10.602;2022-11-20T01:19:58;32.30;;;17.50;;
974;SDS011;6115;49.296;10.602;2022-11-20T01:24:58;32.60;;;15.80;;
974;SDS011;6115;49.296;10.602;2022-11-20T01:29:59;32.93;;;16.43;;
974;SDS011;6115;49.296;10.602;2022-11-20T01:35:00;34.97;;;16.70;;
974;SDS011;6115;49.296;10.602;2022-11-20T01:40:00;34.20;;;17.13;;
974;SDS011;6115;49.296;10.602;2022-11-20T01:45:01;31.80;;;15.40;;
974;SDS011;6115;49.296;10.602;2022-11-20T01:50:06;35.43;;;16.93;;
974;SDS011;6115;49.296;10.602;2022-11-20T01:55:17;36.40;;;17.90;;
974;SDS011;6115;49.296;10.602;2022-11-20T02:00:20;39.20;;;19.87;;
974;SDS011;6115;49.296;10.602;2022-11-20T02:05:23;35.47;;;19.77;;
974;SDS011;6115;49.296;10.602;2022-11-20T02:10:28;38.03;;;15.50;;
974;SDS011;6115;49.296;10.602;2022-11-20T02:15:30;28.53;;;15.60;;
974;SDS011;6115;49.296;10.602;2022-11-20T02:20:32;29.40;;;14.93;;
974;SDS011;6115;49.296;10.602;2022-11-20T02:25:33;26.93;;;14.67;;
974;SDS011;6115;49.296;10.602;2022-11-20T02:30:36;33.40;;;16.87;;
974;SDS011;6115;49.296;10.602;2022-11-20T02:35:40;30.70;;;16.53;;
974;SDS011;6115;49.296;10.602;2022-11-20T02:40:43;30.97;;;16.20;;
974;SDS011;6115;49.296;10.602;2022-11-20T02:45:43;29.13;;;15.07;;
974;SDS011;6115;49.296;10.602;2022-11-20T02:50:44;37.17;;;16.77;;
974;SDS011;6115;49.296;10.602;2022-11-20T02:55:45;29.20;;;15.53;;
974;SDS011;6115;49.296;10.602;2022-11-20T03:00:45;33.47;;;16.97;;
974;SDS011;6115;49.296;10.602;2022-11-20T03:05:46;31.57;;;16.03;;
974;SDS011;6115;49.296;10.602;2022-11-20T03:10:46;24.73;;;14.30;;
974;SDS011;6115;49.296;10.602;2022-11-20T03:15:47;29.30;;;15.20;;
974;SDS011;6115;49.296;10.602;2022-11-20T03:20:47;27.47;;;13.73;;
974;SDS011;6115;49.296;10.602;2022-11-20T03:25:48;25.17;;;13.57;;
974;SDS011;6115;49.296;10.602;2022-11-20T03:30:48;30.40;;;14.43;;
974;SDS011;6115;49.296;10.602;2022-11-20T03:35:49;23.40;;;12.10;;
974;SDS011;6115;49.296;10.602;2022-11-20T03:40:49;28.87;;;14.20;;
974;SDS011;6115;49.296;10.602;2022-11-20T03:45:50;26.90;;;14.63;;
974;SDS011;6115;49.296;10.602;2022-11-20T03:50:51;21.77;;;13.63;;
974;SDS011;6115;49.296;10.602;2022-11-20T03:55:53;24.30;;;12.50;;
974;SDS011;6115;49.296;10.602;2022-11-20T04:00:54;22.30;;;12.47;;
974;SDS011;6115;49.296;10.602;2022-11-20T04:05:54;23.87;;;12.80;;
974;SDS011;6115;49.296;10.602;2022-11-20T04:10:55;26.00;;;13.27;;
974;SDS011;6115;49.296;10.602;2022-11-20T04:15:57;30.53;;;15.23;;
974;SDS011;6115;49.296;10.602;2022-11-20T04:20:58;34.20;;;14.40;;
974;SDS011;6115;49.296;10.602;2022-11-20T04:26:05;25.00;;;13.50;;
974;SDS011;6115;49.296;10.602;2022-11-20T04:31:09;25.33;;;12.87;;
974;SDS011;6115;49.296;10.602;2022-11-20T04:36:12;26.50;;;12.30;;
974;SDS011;6115;49.296;10.602;2022-11-20T04:41:14;22.27;;;12.27;;
974;SDS011;6115;49.296;10.602;2022-11-20T04:46:17;31.67;;;14.80;;
974;SDS011;6115;49.296;10.602;2022-11-20T04:51:18;28.73;;;13.20;;
974;SDS011;6115;49.296;10.602;2022-11-20T04:56:19;26.50;;;14.13;;
974;SDS011;6115;49.296;10.602;2022-11-20T05:01:20;32.40;;;14.47;;
974;SDS011;6115;49.296;10.602;2022-11-20T05:06:22;30.00;;;14.40;;
974;SDS011;6115;49.296;10.602;2022-11-20T05:11:23;27.70;;;13.80;;
974;SDS011;6115;49.296;10.602;2022-11-20T05:16:24;26.00;;;14.03;;
974;SDS011;6115;49.296;10.602;2022-11-20T05:21:25;27.83;;;13.63;;
974;SDS011;6115;49.296;10.602;2022-11-20T05:26:27;26.70;;;12.90;;
974;SDS011;6115;49.296;10.602;2022-11-20T05:31:28;22.63;;;13.73;;
974;SDS011;6115;49.296;10.602;2022-11-20T05:36:28;24.43;;;12.33;;
974;SDS011;6115;49.296;10.602;2022-11-20T05:41:30;25.33;;;12.37;;
974;SDS011;6115;49.296;10.602;2022-11-20T05:46:30;28.60;;;13.57;;
974;SDS011;6115;49.296;10.602;2022-11-20T05:51:31;27.87;;;13.57;;
974;SDS011;6115;49.296;10.602;2022-11-20T05:56:31;22.10;;;12.10;;
974;SDS011;6115;49.296;10.602;2022-11-20T06:01:32;31.63;;;12.97;;
974;SDS011;6115;49.296;10.602;2022-11-20T06:06:35;26.43;;;13.37;;
974;SDS011;6115;49.296;10.602;2022-11-20T06:11:36;41.23;;;13.90;;
974;SDS011;6115;49.296;10.602;2022-11-20T06:16:37;30.40;;;13.63;;
974;SDS011;6115;49.296;10.602;2022-11-20T06:21:37;24.37;;;11.77;;
974;SDS011;6115;49.296;10.602;2022-11-20T06:26:38;26.77;;;15.87;;
974;SDS011;6115;49.296;10.602;2022-11-20T06:31:38;27.20;;;16.33;;
974;SDS011;6115;49.296;10.602;2022-11-20T06:36:39;27.73;;;15.87;;
974;SDS011;6115;49.296;10.602;2022-11-20T06:41:39;21.90;;;14.50;;
974;SDS011;6115;49.296;10.602;2022-11-20T06:46:40;23.13;;;15.50;;
974;SDS011;6115;49.296;10.602;2022-11-20T06:51:40;22.03;;;12.90;;
974;SDS011;6115;49.296;10.602;2022-11-20T06:56:41;21.07;;;11.30;;
974;SDS011;6115;49.296;10.602;2022-11-20T07:01:41;22.63;;;12.20;;
974;SDS011;6115;49.296;10.602;2022-11-20T07:06:42;22.63;;;11.73;;
974;SDS011;6115;49.296;10.602;2022-11-20T07:11:42;21.90;;;11.80;;
974;SDS011;6115;49.296;10.602;2022-11-20T07:16:43;20.50;;;11.40;;
974;SDS011;6115;49.296;10.602;2022-11-20T07:21:44;16.87;;;9.63;;
974;SDS011;6115;49.296;10.602;2022-11-20T07:26:46;18.03;;;10.20;;
974;SDS011;6115;49.296;10.602;2022-11-20T07:31:49;15.10;;;10.70;;
974;SDS011;6115;49.296;10.602;2022-11-20T07:36:49;12.40;;;8.77;;
974;SDS011;6115;49.296;10.602;2022-11-20T07:41:50;14.77;;;9.80;;
974;SDS011;6115;49.296;10.602;2022-11-20T07:46:50;9.60;;;7.07;;
974;SDS011;6115;49.296;10.602;2022-11-20T07:51:51;11.43;;;7.90;;
974;SDS011;6115;49.296;10.602;2022-11-20T07:56:53;12.07;;;8.57;;
974;SDS011;6115;49.296;10.602;2022-11-20T08:01:54;7.70;;;5.70;;
974;SDS011;6115;49.296;10.602;2022-11-20T08:06:55;6.80;;;4.50;;
974;SDS011;6115;49.296;10.602;2022-11-20T08:11:56;9.50;;;6.23;;
974;SDS011;6115;49.296;10.602;2022-11-20T08:17:15;8.80;;;6.00;;
974;SDS011;6115;49.296;10.602;2022-11-20T08:22:15;7.57;;;4.27;;
974;SDS011;6115;49.296;10.602;2022-11-20T08:27:17;3.77;;;2.80;;
974;SDS011;6115;49.296;10.602;2022-11-20T08:32:18;2.60;;;2.40;;
974;SDS011;6115;49.296;10.602;2022-11-20T08:37:18;3.17;;;2.03;;
974;SDS011;6115;49.296;10.602;2022-11-20T08:42:19;3.47;;;2.40;;
974;SDS011;6115;49.296;10.602;2022-11-20T08:47:19;3.23;;;2.40;;
974;SDS011;6115;49.296;10.602;2022-11-20T08:52:20;2.13;;;1.93;;
974;SDS011;6115;49.296;10.602;2022-11-20T08:57:20;6.50;;;4.07;;
974;SDS011;6115;49.296;10.602;2022-11-20T09:02:21;2.00;;;1.40;;
974;SDS011;6115;49.296;10.602;2022-11-20T09:07:21;2.37;;;1.97;;
974;SDS011;6115;49.296;10.602;2022-11-20T09:12:22;6.83;;;5.30;;
974;SDS011;6115;49.296;10.602;2022-11-20T09:17:23;3.73;;;3.40;;
974;SDS011;6115;49.296;10.602;2022-11-20T09:22:23;2.93;;;2.70;;
974;SDS011;6115;49.296;10.602;2022-11-20T09:27:24;2.67;;;2.47;;
974;SDS011;6115;49.296;10.602;2022-11-20T09:32:24;3.97;;;3.10;;
974;SDS011;6115;49.296;10.602;2022-11-20T09:37:25;5.33;;;3.20;;
974;SDS011;6115;49.296;10.602;2022-11-20T09:58:29;4.43;;;4.03;;
974;SDS011;6115;49.296;10.602;2022-11-20T10:03:45;4.60;;;3.43;;
974;SDS011;6115;49.296;10.602;2022-11-20T10:09:00;5.37;;;4.00;;
974;SDS011;6115;49.296;10.602;2022-11-20T10:14:10;4.17;;;3.80;;
974;SDS011;6115;49.296;10.602;2022-11-20T10:19:39;5.80;;;4.23;;
974;SDS011;6115;49.296;10.602;2022-11-20T10:24:52;5.47;;;3.70;;
974;SDS011;6115;49.296;10.602;2022-11-20T10:30:15;3.53;;;3.20;;
974;SDS011;6115;49.296;10.602;2022-11-20T10:40:56;3.40;;;3.10;;
974;SDS011;6115;49.296;10.602;2022-11-20T10:46:22;4.77;;;3.40;;
974;SDS011;6115;49.296;10.602;2022-11-20T10:56:53;5.40;;;3.93;;
974;SDS011;6115;49.296;10.602;2022-11-20T11:01:56;4.90;;;4.50;;
974;SDS011;6115;49.296;10.602;2022-11-20T11:07:39;4.40;;;4.00;;
974;SDS011;6115;49.296;10.602;2022-11-20T11:12:26;3.63;;;3.33;;
974;SDS011;6115;49.296;10.602;2022-11-20T11:17:29;3.67;;;3.37;;
974;SDS011;6115;49.296;10.602;2022-11-20T11:22:33;5.37;;;4.87;;
974;SDS011;6115;49.296;10.602;2022-11-20T11:27:46;4.43;;;3.70;;
974;SDS011;6115;49.296;10.602;2022-11-20T11:32:47;4.30;;;3.90;;
974;SDS011;6115;49.296;10.602;2022-11-20T11:37:48;5.20;;;4.70;;
974;SDS011;6115;49.296;10.602;2022-11-20T11:42:52;6.70;;;6.03;;
974;SDS011;6115;49.296;10.602;2022-11-20T11:47:57;7.27;;;6.57;;
974;SDS011;6115;49.296;10.602;2022-11-20T11:53:12;4.90;;;4.40;;
974;SDS011;6115;49.296;10.602;2022-11-20T12:03:53;4.97;;;4.47;;
974;SDS011;6115;49.296;10.602;2022-11-20T12:09:02;3.90;;;3.50;;
974;SDS011;6115;49.296;10.602;2022-11-20T12:14:14;3.63;;;3.23;;
974;SDS011;6115;49.296;10.602;2022-11-20T12:19:33;5.10;;;4.10;;
974;SDS011;6115;49.296;10.602;2022-11-20T12:40:42;6.67;;;4.70;;
974;SDS011;6115;49.296;10.602;2022-11-20T12:45:59;7.90;;;5.43;;
974;SDS011;6115;49.296;10.602;2022-11-20T12:51:27;7.77;;;6.30;;
974;SDS011;6115;49.296;10.602;2022-11-20T12:56:43;9.60;;;7.60;;
974;SDS011;6115;49.296;10.602;2022-11-20T13:02:05;8.80;;;7.50;;
974;SDS011;6115;49.296;10.602;2022-11-20T13:07:19;10.57;;;8.17;;
974;SDS011;6115;49.296;10.602;2022-11-20T13:12:25;11.27;;;9.30;;
974;SDS011;6115;49.296;10.602;2022-11-20T13:23:00;13.90;;;9.27;;
974;SDS011;6115;49.296;10.602;2022-11-20T13:28:03;10.90;;;9.27;;
974;SDS011;6115;49.296;10.602;2022-11-20T13:38:46;9.87;;;8.07;;
974;SDS011;6115;49.296;10.602;2022-11-20T13:43:48;6.40;;;5.70;;
974;SDS011;6115;49.296;10.602;2022-11-20T13:48:49;5.73;;;4.97;;
974;SDS011;6115;49.296;10.602;2022-11-20T13:53:55;6.60;;;4.40;;
974;SDS011;6115;49.296;10.602;2022-11-20T13:59:02;5.90;;;4.40;;
974;SDS011;6115;49.296;10.602;2022-11-20T14:04:33;4.83;;;4.00;;
974;SDS011;6115;49.296;10.602;2022-11-20T14:09:36;4.90;;;4.43;;
974;SDS011;6115;49.296;10.602;2022-11-20T14:14:37;6.47;;;5.87;;
974;SDS011;6115;49.296;10.602;2022-11-20T14:19:49;7.60;;;6.80;;
974;SDS011;6115;49.296;10.602;2022-11-20T14:25:05;8.20;;;4.90;;
974;SDS011;6115;49.296;10.602;2022-11-20T14:30:20;5.20;;;2.20;;
974;SDS011;6115;49.296;10.602;2022-11-20T14:35:27;7.30;;;5.87;;
974;SDS011;6115;49.296;10.602;2022-11-20T14:45:31;3.63;;;3.30;;
974;SDS011;6115;49.296;10.602;2022-11-20T14:50:32;3.60;;;3.30;;
974;SDS011;6115;49.296;10.602;2022-11-20T14:55:33;3.53;;;3.23;;
974;SDS011;6115;49.296;10.602;2022-11-20T15:00:35;4.63;;;3.60;;
974;SDS011;6115;49.296;10.602;2022-11-20T15:05:47;6.40;;;5.10;;
974;SDS011;6115;49.296;10.602;2022-11-20T15:10:50;6.43;;;4.47;;
974;SDS011;6115;49.296;10.602;2022-11-20T15:15:53;7.17;;;6.00;;
974;SDS011;6115;49.296;10.602;2022-11-20T15:20:55;6.73;;;4.23;;
974;SDS011;6115;49.296;10.602;2022-11-20T15:25:57;5.83;;;4.47;;
974;SDS011;6115;49.296;10.602;2022-11-20T15:30:58;10.87;;;5.80;;
974;SDS011;6115;49.296;10.602;2022-11-20T15:35:59;7.57;;;6.10;;
974;SDS011;6115;49.296;10.602;2022-11-20T15:41:00;9.77;;;6.50;;
974;SDS011;6115;49.296;10.602;2022-11-20T15:46:11;7.17;;;6.47;;
974;SDS011;6115;49.296;10.602;2022-11-20T15:56:23;7.03;;;6.33;;
974;SDS011;6115;49.296;10.602;2022-11-20T16:01:24;8.43;;;5.70;;
974;SDS011;6115;49.296;10.602;2022-11-20T16:06:25;7.10;;;5.93;;
974;SDS011;6115;49.296;10.602;2022-11-20T16:11:25;6.93;;;4.90;;
974;SDS011;6115;49.296;10.602;2022-11-20T16:16:33;13.07;;;5.60;;
974;SDS011;6115;49.296;10.602;2022-11-20T16:21:35;3.90;;;3.50;;
974;SDS011;6115;49.296;10.602;2022-11-20T16:26:37;5.53;;;4.13;;
974;SDS011;6115;49.296;10.602;2022-11-20T16:31:38;9.40;;;3.77;;
974;SDS011;6115;49.296;10.602;2022-11-20T16:36:39;6.33;;;4.20;;
974;SDS011;6115;49.296;10.602;2022-11-20T16:41:41;5.87;;;3.30;;
974;SDS011;6115;49.296;10.602;2022-11-20T16:46:42;7.23;;;4.87;;
974;SDS011;6115;49.296;10.602;2022-11-20T16:51:42;9.00;;;5.03;;
974;SDS011;6115;49.296;10.602;2022-11-20T16:56:43;10.27;;;7.07;;
974;SDS011;6115;49.296;10.602;2022-11-20T17:01:46;19.73;;;8.50;;
974;SDS011;6115;49.296;10.602;2022-11-20T17:06:47;14.10;;;7.50;;
974;SDS011;6115;49.296;10.602;2022-11-20T17:11:48;10.30;;;6.70;;
974;SDS011;6115;49.296;10.602;2022-11-20T17:16:48;4.63;;;3.90;;
974;SDS011;6115;49.296;10.602;2022-11-20T17:21:49;15.30;;;9.40;;
974;SDS011;6115;49.296;10.602;2022-11-20T17:26:53;5.27;;;3.27;;
974;SDS011;6115;49.296;10.602;2022-11-20T17:31:53;8.33;;;3.13;;
974;SDS011;6115;49.296;10.602;2022-11-20T17:36:54;5.33;;;3.80;;
974;SDS011;6115;49.296;10.602;2022-11-20T17:41:54;4.80;;;3.43;;
974;SDS011;6115;49.296;10.602;2022-11-20T17:47:14;5.90;;;3.37;;
974;SDS011;6115;49.296;10.602;2022-11-20T17:52:15;5.20;;;3.80;;
974;SDS011;6115;49.296;10.602;2022-11-20T17:57:15;8.03;;;3.27;;
974;SDS011;6115;49.296;10.602;2022-11-20T18:02:35;6.67;;;3.80;;
974;SDS011;6115;49.296;10.602;2022-11-20T18:07:35;5.57;;;4.00;;
974;SDS011;6115;49.296;10.602;2022-11-20T18:12:37;5.40;;;4.50;;
974;SDS011;6115;49.296;10.602;2022-11-20T18:17:38;10.17;;;5.20;;
974;SDS011;6115;49.296;10.602;2022-11-20T18:22:38;11.03;;;6.47;;
974;SDS011;6115;49.296;10.602;2022-11-20T18:27:39;7.27;;;4.57;;
974;SDS011;6115;49.296;10.602;2022-11-20T18:32:39;7.23;;;5.70;;
974;SDS011;6115;49.296;10.602;2022-11-20T18:37:41;6.80;;;4.83;;
974;SDS011;6115;49.296;10.602;2022-11-20T18:42:42;6.83;;;4.60;;
974;SDS011;6115;49.296;10.602;2022-11-20T18:48:01;6.50;;;5.33;;
974;SDS011;6115;49.296;10.602;2022-11-20T18:53:02;7.43;;;4.60;;
974;SDS011;6115;49.296;10.602;2022-11-20T18:58:02;8.60;;;5.30;;
974;SDS011;6115;49.296;10.602;2022-11-20T19:03:04;7.90;;;4.10;;
974;SDS011;6115;49.296;10.602;2022-11-20T19:08:05;5.17;;;3.80;;
974;SDS011;6115;49.296;10.602;2022-11-20T19:13:05;5.97;;;4.83;;
974;SDS011;6115;49.296;10.602;2022-11-20T19:18:06;4.73;;;3.30;;
974;SDS011;6115;49.296;10.602;2022-11-20T19:23:06;5.50;;;3.20;;
974;SDS011;6115;49.296;10.602;2022-11-20T19:28:07;6.93;;;5.37;;
974;SDS011;6115;49.296;10.602;2022-11-20T19:33:07;6.17;;;4.80;;
974;SDS011;6115;49.296;10.602;2022-11-20T19:38:08;5.13;;;3.60;;
974;SDS011;6115;49.296;10.602;2022-11-20T19:43:09;5.40;;;3.60;;
974;SDS011;6115;49.296;10.602;2022-11-20T19:48:10;7.30;;;4.43;;
974;SDS011;6115;49.296;10.602;2022-11-20T19:53:10;7.30;;;3.87;;
974;SDS011;6115;49.296;10.602;2022-11-20T19:58:11;4.63;;;4.23;;
974;SDS011;6115;49.296;10.602;2022-11-20T20:03:11;4.83;;;4.33;;
974;SDS011;6115;49.296;10.602;2022-11-20T20:08:12;5.27;;;3.87;;
974;SDS011;6115;49.296;10.602;2022-11-20T20:13:13;5.97;;;4.33;;
974;SDS011;6115;49.296;10.602;2022-11-20T20:18:14;8.07;;;6.30;;
974;SDS011;6115;49.296;10.602;2022-11-20T20:23:15;6.83;;;4.20;;
974;SDS011;6115;49.296;10.602;2022-11-20T20:28:15;5.77;;;4.50;;
974;SDS011;6115;49.296;10.602;2022-11-20T20:33:16;5.53;;;4.20;;
974;SDS011;6115;49.296;10.602;2022-11-20T20:38:16;4.23;;;3.70;;
974;SDS011;6115;49.296;10.602;2022-11-20T20:43:17;2.70;;;2.47;;
974;SDS011;6115;49.296;10.602;2022-11-20T20:48:18;4.63;;;3.30;;
974;SDS011;6115;49.296;10.602;2022-11-20T20:53:20;2.40;;;2.20;;
974;SDS011;6115;49.296;10.602;2022-11-20T20:58:22;3.10;;;2.57;;
974;SDS011;6115;49.296;10.602;2022-11-20T21:03:23;2.37;;;2.17;;
974;SDS011;6115;49.296;10.602;2022-11-20T21:08:23;4.87;;;2.30;;
974;SDS011;6115;49.296;10.602;2022-11-20T21:13:24;2.17;;;1.97;;
974;SDS011;6115;49.296;10.602;2022-11-20T21:18:25;2.03;;;1.70;;
974;SDS011;6115;49.296;10.602;2022-11-20T21:23:26;2.60;;;1.70;;
974;SDS011;6115;49.296;10.602;2022-11-20T21:28:27;1.60;;;1.50;;
974;SDS011;6115;49.296;10.602;2022-11-20T21:33:36;1.83;;;1.67;;
974;SDS011;6115;49.296;10.602;2022-11-20T21:38:37;2.00;;;1.47;;
974;SDS011;6115;49.296;10.602;2022-11-20T21:43:38;2.60;;;1.60;;
974;SDS011;6115;49.296;10.602;2022-11-20T21:48:39;2.50;;;2.33;;
974;SDS011;6115;49.296;10.602;2022-11-20T21:53:42;2.40;;;2.20;;
974;SDS011;6115;49.296;10.602;2022-11-20T21:58:43;1.00;;;0.90;;
974;SDS011;6115;49.296;10.602;2022-11-20T22:03:51;2.27;;;2.07;;
974;SDS011;6115;49.296;10.602;2022-11-20T22:08:53;2.77;;;1.60;;
974;SDS011;6115;49.296;10.602;2022-11-20T22:13:57;2.70;;;1.80;;
974;SDS011;6115;49.296;10.602;2022-11-20T22:19:20;2.20;;;2.07;;
974;SDS011;6115;49.296;10.602;2022-11-20T22:24:21;2.00;;;1.90;;
974;SDS011;6115;49.296;10.602;2022-11-20T22:29:22;3.60;;;2.23;;
974;SDS011;6115;49.296;10.602;2022-11-20T22:34:23;1.53;;;1.27;;
974;SDS011;6115;49.296;10.602;2022-11-20T22:39:23;1.40;;;1.30;;
974;SDS011;6115;49.296;10.602;2022-11-20T22:44:24;2.07;;;1.97;;
974;SDS011;6115;49.296;10.602;2022-11-20T22:49:24;1.60;;;1.50;;
974;SDS011;6115;49.296;10.602;2022-11-20T22:54:28;1.50;;;1.40;;
974;SDS011;6115;49.296;10.602;2022-11-20T22:59:28;1.70;;;1.60;;
974;SDS011;6115;49.296;10.602;2022-11-20T23:04:29;1.87;;;1.57;;
974;SDS011;6115;49.296;10.602;2022-11-20T23:09:29;1.53;;;1.40;;
974;SDS011;6115;49.296;10.602;2022-11-20T23:14:30;4.17;;;1.50;;
974;SDS011;6115;49.296;10.602;2022-11-20T23:19:30;1.60;;;1.50;;
974;SDS011;6115;49.296;10.602;2022-11-20T23:24:31;3.10;;;1.83;;
974;SDS011;6115;49.296;10.602;2022-11-20T23:29:31;2.10;;;1.90;;
974;SDS011;6115;49.296;10.602;2022-11-20T23:34:32;2.10;;;1.90;;
974;SDS011;6115;49.296;10.602;2022-11-20T23:39:32;2.37;;;2.17;;
974;SDS011;6115;49.296;10.602;2022-11-20T23:44:33;2.47;;;2.27;;
974;SDS011;6115;49.296;10.602;2022-11-20T23:49:33;2.90;;;1.90;;
974;SDS011;6115;49.296;10.602;2022-11-20T23:54:34;4.87;;;2.70;;
974;SDS011;6115;49.296;10.602;2022-11-20T23:59:34;4.13;;;1.80;;
